Costessey, United Kingdom
Current Conditions -  °F | °C
As of 6:50 PM on Friday 21 Nov 2014 (Local Time) from EGSH Reporting Station
Light Rain Light Rain  
Wind Chill: 44°   Ceiling: Unl
Heat Index: 48°   Visibility: 6mi
Dew Point: 45°   Wind: 9mph
Humidity: 87%   Direction: 120°ESE
Pressure: 30"   Gusts: NA
Location:  52.66°N, 1.21°E
Report Text: EGSH 211850Z 12008KT 090V150 9999 -RA FEW015 09/07 Q1016 TEMPO 4000 RA BKN014
Loading
Personal Weather Stations






























Interactive Weather Map New forecast layout! Learn more

10-Day Weather Forecast

Advertisements
Track Severe Weather on mobile